Time;durP1;ratioP1;P1;durP2;ratioP2;P2;SDS_P1;SDS_P2;PMS_P1;PMS_P2;Temp;Humidity;BMP_temperature;BMP_pressure;BME280_temperature;BME280_humidity;BME280_pressure;Samples;Min_cycle;Max_cycle;Signal;HPM_P1;HPM_P2
2023/09/26 00:02:20;;;;;;;20.58;16.95;;;13.90;99.90;;;;;;5095630;27;20055;-82
2023/09/26 00:04:47;;;;;;;23.52;17.70;;;13.90;99.90;;;;;;5100582;27;20051;-78
2023/09/26 00:07:13;;;;;;;22.30;17.33;;;13.90;99.90;;;;;;5070851;27;20074;-81
2023/09/26 00:09:40;;;;;;;23.60;17.90;;;13.90;99.90;;;;;;5079258;27;20384;-79
2023/09/26 00:12:07;;;;;;;25.70;19.08;;;13.80;99.90;;;;;;5078749;27;20035;-80
2023/09/26 00:14:33;;;;;;;25.92;17.40;;;13.90;99.90;;;;;;5076651;27;20419;-75
2023/09/26 00:16:59;;;;;;;21.33;16.95;;;13.90;99.90;;;;;;5074449;27;20043;-78
2023/09/26 00:19:25;;;;;;;19.77;16.13;;;13.80;99.90;;;;;;5110061;27;20054;-77
2023/09/26 00:21:51;;;;;;;17.88;15.52;;;13.80;99.90;;;;;;5089720;27;20051;-76
2023/09/26 00:24:17;;;;;;;21.70;17.30;;;13.80;99.90;;;;;;5096686;27;20090;-78
2023/09/26 00:26:42;;;;;;;20.38;16.98;;;13.80;99.90;;;;;;5096010;27;20066;-80
2023/09/26 00:29:09;;;;;;;21.02;17.13;;;13.80;99.90;;;;;;5093624;27;20096;-78
2023/09/26 00:31:35;;;;;;;22.73;17.25;;;13.80;99.90;;;;;;5072130;27;20724;-80
2023/09/26 00:34:00;;;;;;;24.13;17.15;;;13.70;99.90;;;;;;5094013;27;20039;-79
2023/09/26 00:36:26;;;;;;;21.85;17.63;;;13.70;99.90;;;;;;5094405;27;20051;-78
2023/09/26 00:38:52;;;;;;;21.15;16.50;;;13.70;99.90;;;;;;5075662;27;20089;-82
2023/09/26 00:41:18;;;;;;;21.15;17.13;;;13.70;99.90;;;;;;5095273;27;20055;-78
2023/09/26 00:43:43;;;;;;;20.83;16.20;;;13.70;99.90;;;;;;5063015;27;20479;-78
2023/09/26 00:46:11;;;;;;;23.15;16.17;;;13.60;99.90;;;;;;5063789;27;20499;-79
2023/09/26 00:48:38;;;;;;;23.80;16.35;;;13.60;99.90;;;;;;5095050;27;20541;-79
2023/09/26 00:51:06;;;;;;;19.27;15.30;;;13.60;99.90;;;;;;5078424;27;20099;-80
2023/09/26 00:53:32;;;;;;;18.27;15.25;;;13.60;99.90;;;;;;5066779;27;20055;-78
2023/09/26 00:55:59;;;;;;;21.70;17.48;;;13.60;99.90;;;;;;5069959;27;20051;-80
2023/09/26 00:58:25;;;;;;;23.52;18.55;;;13.60;99.90;;;;;;5102433;27;20050;-79
2023/09/26 01:00:53;;;;;;;20.80;16.05;;;13.60;99.90;;;;;;5100786;27;20043;-80
2023/09/26 01:03:20;;;;;;;16.48;13.55;;;13.60;99.90;;;;;;5081787;27;20050;-79
2023/09/26 01:05:46;;;;;;;23.25;16.45;;;13.60;99.90;;;;;;5070057;27;20043;-80
2023/09/26 01:08:12;;;;;;;20.08;15.90;;;13.60;99.90;;;;;;5094661;27;20041;-78
2023/09/26 01:10:39;;;;;;;18.55;14.63;;;13.60;99.90;;;;;;5074603;27;20075;-78
2023/09/26 01:13:05;;;;;;;17.65;13.77;;;13.60;99.90;;;;;;5098671;27;20057;-79
2023/09/26 01:15:36;;;;;;;17.58;14.30;;;13.50;99.90;;;;;;5098503;27;20047;-79
2023/09/26 01:18:10;;;;;;;15.57;12.85;;;13.50;99.90;;;;;;5087149;27;20108;-80
2023/09/26 01:20:44;;;;;;;15.13;12.57;;;13.70;99.90;;;;;;5083019;27;20653;-80
2023/09/26 01:23:14;;;;;;;17.60;13.77;;;13.50;99.90;;;;;;5076179;27;20109;-85
2023/09/26 01:25:40;;;;;;;21.90;15.27;;;13.40;99.90;;;;;;5099802;27;21157;-81
2023/09/26 01:28:07;;;;;;;15.95;13.73;;;13.40;99.90;;;;;;5080796;27;21047;-83
2023/09/26 01:30:38;;;;;;;18.95;15.00;;;13.40;99.90;;;;;;5099373;27;20047;-79
2023/09/26 01:33:10;;;;;;;19.48;15.07;;;13.30;99.90;;;;;;5098236;27;20049;-78
2023/09/26 01:35:36;;;;;;;18.80;15.02;;;13.30;99.90;;;;;;5099129;27;20787;-82
2023/09/26 01:38:02;;;;;;;18.42;15.80;;;13.30;99.90;;;;;;5073816;27;20049;-82
2023/09/26 01:40:28;;;;;;;16.58;14.20;;;13.20;99.90;;;;;;5062848;27;20050;-80
2023/09/26 01:42:53;;;;;;;16.98;14.50;;;13.20;99.90;;;;;;5086975;27;20363;-80
2023/09/26 01:45:19;;;;;;;19.33;15.13;;;13.20;99.90;;;;;;5084010;27;20052;-84
2023/09/26 01:47:51;;;;;;;19.83;16.38;;;13.30;99.90;;;;;;5099978;27;20150;-83
2023/09/26 01:50:19;;;;;;;20.95;16.30;;;13.20;99.90;;;;;;5062389;27;20047;-85
2023/09/26 01:52:46;;;;;;;17.73;14.80;;;13.20;99.90;;;;;;5099092;27;20047;-84
2023/09/26 01:55:17;;;;;;;17.95;12.80;;;13.20;99.90;;;;;;5081640;27;20129;-83
2023/09/26 01:57:42;;;;;;;16.30;13.73;;;13.20;99.90;;;;;;5081856;27;20052;-81
2023/09/26 02:00:12;;;;;;;16.88;13.65;;;13.20;99.90;;;;;;5107934;27;20099;-82
2023/09/26 02:02:49;;;;;;;15.95;13.32;;;13.20;99.90;;;;;;5076707;27;20042;-80
2023/09/26 02:05:20;;;;;;;16.77;13.98;;;13.10;99.90;;;;;;5095131;27;20066;-83
2023/09/26 02:07:46;;;;;;;20.95;17.90;;;13.10;99.90;;;;;;5062956;27;20128;-83
2023/09/26 02:10:13;;;;;;;18.08;15.52;;;13.10;99.90;;;;;;5083650;27;20047;-81
2023/09/26 02:12:47;;;;;;;22.67;18.25;;;13.10;99.90;;;;;;5097972;27;20074;-81
2023/09/26 02:15:13;;;;;;;22.58;18.15;;;13.10;99.90;;;;;;5079959;27;20058;-84
2023/09/26 02:17:40;;;;;;;21.90;18.50;;;13.10;99.90;;;;;;5091944;27;20055;-82
2023/09/26 02:20:12;;;;;;;23.45;17.35;;;13.10;99.90;;;;;;5090458;27;20046;-77
2023/09/26 02:22:43;;;;;;;22.15;18.40;;;13.10;99.90;;;;;;5094923;27;20505;-78
2023/09/26 02:25:10;;;;;;;23.70;18.20;;;13.10;99.90;;;;;;5096997;27;20049;-78
2023/09/26 02:27:36;;;;;;;25.48;17.92;;;13.10;99.90;;;;;;5093311;27;20103;-77
2023/09/26 02:30:04;;;;;;;19.73;17.05;;;13.00;99.90;;;;;;5088795;27;20133;-76
2023/09/26 02:32:33;;;;;;;19.17;16.55;;;13.00;99.90;;;;;;5082727;27;20418;-77
2023/09/26 02:34:58;;;;;;;20.98;16.02;;;13.00;99.90;;;;;;5098396;27;20100;-78
2023/09/26 02:37:24;;;;;;;22.23;17.58;;;13.00;99.90;;;;;;5068977;27;20055;-76
2023/09/26 02:39:51;;;;;;;23.20;17.55;;;13.00;99.90;;;;;;5095186;27;20047;-83
2023/09/26 02:42:17;;;;;;;22.25;17.67;;;13.00;99.90;;;;;;5066806;27;20046;-80
2023/09/26 02:44:43;;;;;;;20.08;17.77;;;13.00;99.90;;;;;;5090484;27;20050;-81
2023/09/26 02:47:08;;;;;;;20.45;18.20;;;13.00;99.90;;;;;;5091310;27;21089;-81
2023/09/26 02:49:34;;;;;;;20.25;17.38;;;13.00;99.90;;;;;;5069265;27;20047;-78
2023/09/26 02:52:00;;;;;;;19.77;16.05;;;13.00;99.90;;;;;;5086379;27;20051;-77
2023/09/26 02:54:26;;;;;;;22.42;16.42;;;13.00;99.90;;;;;;5077802;27;20067;-79
2023/09/26 02:56:51;;;;;;;20.27;17.50;;;13.00;99.90;;;;;;5082230;27;20047;-78
2023/09/26 02:59:17;;;;;;;21.33;16.75;;;13.00;99.90;;;;;;5095299;27;20139;-80
2023/09/26 03:01:43;;;;;;;22.15;17.77;;;13.00;99.90;;;;;;5071020;27;20043;-78
2023/09/26 03:04:09;;;;;;;20.38;17.35;;;13.00;99.90;;;;;;5074707;27;20451;-83
2023/09/26 03:06:34;;;;;;;17.50;15.45;;;13.00;99.90;;;;;;5069310;27;20049;-83
2023/09/26 03:09:00;;;;;;;21.17;17.17;;;13.00;99.90;;;;;;5060909;27;20031;-79
2023/09/26 03:11:26;;;;;;;17.38;15.52;;;13.00;99.90;;;;;;5081333;27;20495;-81
2023/09/26 03:13:51;;;;;;;22.92;16.90;;;13.00;99.90;;;;;;5094048;27;20050;-80
2023/09/26 03:16:18;;;;;;;25.35;17.70;;;13.00;99.90;;;;;;5069520;27;20472;-79
2023/09/26 03:18:45;;;;;;;18.73;15.32;;;13.00;99.90;;;;;;5086921;27;20482;-80
2023/09/26 03:21:12;;;;;;;21.75;17.40;;;13.00;99.90;;;;;;5096929;27;20396;-79
2023/09/26 03:23:38;;;;;;;19.90;15.77;;;13.00;99.90;;;;;;5095368;27;20481;-78
2023/09/26 03:26:12;;;;;;;21.58;16.90;;;13.00;99.90;;;;;;5065140;27;20055;-81
2023/09/26 03:28:39;;;;;;;16.90;14.80;;;13.00;99.90;;;;;;5090514;27;20419;-80
2023/09/26 03:31:05;;;;;;;20.70;15.90;;;13.00;99.90;;;;;;5102073;27;20047;-84
2023/09/26 03:33:32;;;;;;;19.45;15.55;;;13.00;99.90;;;;;;5086617;27;20047;-80
2023/09/26 03:35:59;;;;;;;21.30;17.02;;;12.90;99.90;;;;;;5099320;27;20118;-85
2023/09/26 03:38:24;;;;;;;19.25;16.30;;;12.90;99.90;;;;;;5069479;27;20051;-83
2023/09/26 03:41:00;;;;;;;20.15;16.67;;;12.90;99.90;;;;;;5087798;27;20051;-77
2023/09/26 03:43:27;;;;;;;20.67;17.08;;;13.00;99.90;;;;;;5096629;27;20047;-79
2023/09/26 03:46:04;;;;;;;19.90;16.27;;;13.00;99.90;;;;;;5093155;27;20134;-76
2023/09/26 03:48:31;;;;;;;22.23;17.10;;;13.00;99.90;;;;;;5094079;27;20751;-82
2023/09/26 03:51:08;;;;;;;21.05;16.80;;;13.00;99.90;;;;;;5080863;27;20127;-78
2023/09/26 03:53:35;;;;;;;21.58;16.63;;;13.00;99.90;;;;;;5098487;27;20144;-76
2023/09/26 03:56:00;;;;;;;20.05;16.25;;;13.00;99.90;;;;;;5112910;27;20039;-77
2023/09/26 03:58:26;;;;;;;18.83;14.20;;;13.00;99.90;;;;;;5073564;27;20051;-76
2023/09/26 04:00:52;;;;;;;16.17;14.40;;;13.00;99.90;;;;;;5090554;27;20043;-77
2023/09/26 04:03:20;;;;;;;17.20;14.50;;;13.40;99.90;;;;;;5095683;27;20110;-76
2023/09/26 04:05:48;;;;;;;17.15;14.13;;;13.00;99.90;;;;;;5100891;27;20100;-80
2023/09/26 04:08:17;;;;;;;19.00;15.32;;;13.00;99.90;;;;;;5094838;27;20050;-77
2023/09/26 04:10:42;;;;;;;17.42;15.52;;;13.00;99.90;;;;;;5079703;27;20133;-81
2023/09/26 04:13:08;;;;;;;18.70;13.98;;;13.00;99.90;;;;;;5116144;27;20873;-75
2023/09/26 04:15:38;;;;;;;16.88;14.23;;;13.00;99.90;;;;;;5094643;27;21128;-80
2023/09/26 04:18:05;;;;;;;16.85;13.43;;;13.00;99.90;;;;;;5094132;27;20051;-81
2023/09/26 04:20:31;;;;;;;16.85;14.15;;;13.00;99.90;;;;;;5094141;27;20051;-83
2023/09/26 04:22:56;;;;;;;18.15;14.95;;;12.90;99.90;;;;;;5094768;27;20082;-79
2023/09/26 04:25:22;;;;;;;15.65;13.30;;;12.90;99.90;;;;;;5090427;27;20043;-84
2023/09/26 04:27:48;;;;;;;17.75;14.15;;;12.80;99.90;;;;;;5057379;27;20498;-80
2023/09/26 04:30:13;;;;;;;17.77;13.95;;;12.80;99.90;;;;;;5079424;27;20043;-79
2023/09/26 04:32:39;;;;;;;18.15;14.93;;;12.80;99.90;;;;;;5101066;27;20575;-80
2023/09/26 04:35:05;;;;;;;18.15;15.20;;;12.80;99.90;;;;;;5107430;27;20609;-81
2023/09/26 04:37:31;;;;;;;19.25;15.20;;;12.80;99.90;;;;;;5109148;27;20060;-81
2023/09/26 04:39:57;;;;;;;16.75;14.20;;;12.80;99.90;;;;;;5079063;27;20428;-79
2023/09/26 04:42:24;;;;;;;19.70;14.77;;;12.80;99.90;;;;;;5098972;27;20047;-83
2023/09/26 04:44:50;;;;;;;19.92;16.38;;;12.80;99.90;;;;;;5101899;27;20097;-85
2023/09/26 04:47:15;;;;;;;20.38;15.57;;;12.80;99.90;;;;;;5116902;27;20043;-80
2023/09/26 04:49:41;;;;;;;17.95;15.02;;;12.80;99.90;;;;;;5109249;27;20405;-82
2023/09/26 04:52:07;;;;;;;19.60;16.08;;;12.80;99.90;;;;;;5098962;27;20039;-79
2023/09/26 04:54:33;;;;;;;17.25;13.63;;;12.70;99.90;;;;;;5092361;27;20043;-79
2023/09/26 04:56:58;;;;;;;18.23;14.50;;;12.70;99.90;;;;;;5098911;27;20050;-82
2023/09/26 04:59:24;;;;;;;16.33;13.10;;;12.70;99.90;;;;;;5085924;27;20054;-80
2023/09/26 05:01:50;;;;;;;20.80;16.08;;;12.70;99.90;;;;;;5119104;27;20190;-83
2023/09/26 05:04:16;;;;;;;18.27;14.63;;;12.70;99.90;;;;;;5067783;27;20081;-83
2023/09/26 05:06:42;;;;;;;18.77;14.57;;;12.60;99.90;;;;;;5088721;27;20047;-81
2023/09/26 05:09:08;;;;;;;17.35;14.30;;;12.60;99.90;;;;;;5073850;27;20543;-77
2023/09/26 05:11:34;;;;;;;17.35;14.77;;;12.60;99.90;;;;;;5099898;27;20042;-77
2023/09/26 05:14:00;;;;;;;18.73;15.45;;;12.60;99.90;;;;;;5094577;27;20051;-79
2023/09/26 05:16:31;;;;;;;18.80;15.27;;;12.60;99.90;;;;;;5097156;27;20561;-77
2023/09/26 05:18:57;;;;;;;20.00;15.90;;;12.60;99.90;;;;;;5057517;27;20055;-79
2023/09/26 05:21:23;;;;;;;23.85;16.48;;;12.60;99.90;;;;;;5057993;27;20058;-75
2023/09/26 05:23:49;;;;;;;20.05;15.82;;;12.60;99.90;;;;;;5096108;27;20394;-77
2023/09/26 05:26:14;;;;;;;21.13;16.08;;;12.60;99.90;;;;;;5089341;27;20377;-77
2023/09/26 05:28:40;;;;;;;21.70;16.60;;;12.60;99.90;;;;;;5092770;27;20054;-76
2023/09/26 05:31:06;;;;;;;21.23;16.65;;;12.60;99.90;;;;;;5069603;27;20041;-77
2023/09/26 05:33:39;;;;;;;21.63;17.70;;;12.60;99.90;;;;;;5058093;27;20419;-76
2023/09/26 05:36:05;;;;;;;22.27;16.88;;;12.70;99.90;;;;;;5069046;27;20445;-76
2023/09/26 05:38:31;;;;;;;21.38;17.08;;;12.70;99.90;;;;;;5057768;27;20052;-76
2023/09/26 05:40:57;;;;;;;22.48;17.40;;;12.60;99.90;;;;;;5095256;27;20047;-76
2023/09/26 05:43:23;;;;;;;23.25;18.92;;;12.60;99.90;;;;;;5084689;27;20126;-77
2023/09/26 05:45:51;;;;;;;20.05;16.48;;;12.70;99.90;;;;;;5095377;27;20061;-77
2023/09/26 05:48:18;;;;;;;19.98;17.20;;;12.70;99.90;;;;;;5094671;27;20050;-75
2023/09/26 05:50:43;;;;;;;21.67;17.63;;;12.80;99.90;;;;;;5086773;27;20055;-77
2023/09/26 05:53:09;;;;;;;25.17;19.48;;;12.80;99.90;;;;;;5073645;27;20039;-76
2023/09/26 05:55:35;;;;;;;20.75;17.75;;;12.80;99.90;;;;;;5116753;27;20090;-76
2023/09/26 05:58:01;;;;;;;20.23;17.77;;;12.80;99.90;;;;;;5095521;27;20054;-75
2023/09/26 06:00:26;;;;;;;21.27;18.40;;;12.80;99.90;;;;;;5093274;27;20076;-76
2023/09/26 06:02:53;;;;;;;21.55;16.83;;;12.80;99.90;;;;;;5053608;27;20758;-78
2023/09/26 06:05:19;;;;;;;21.73;17.30;;;12.90;99.90;;;;;;5089922;27;20046;-77
2023/09/26 06:07:45;;;;;;;18.73;16.15;;;12.90;99.90;;;;;;5070709;27;20057;-75
2023/09/26 06:10:11;;;;;;;20.42;16.65;;;12.90;99.90;;;;;;5080423;27;20043;-78
2023/09/26 06:12:40;;;;;;;22.35;17.10;;;12.90;99.90;;;;;;5096020;27;20039;-76
2023/09/26 06:15:09;;;;;;;21.88;16.98;;;12.90;99.90;;;;;;5091921;27;20133;-76
2023/09/26 06:17:35;;;;;;;20.15;16.38;;;12.90;99.90;;;;;;5089965;27;20087;-77
2023/09/26 06:20:08;;;;;;;19.70;17.17;;;12.90;99.90;;;;;;5095296;27;20258;-76
2023/09/26 06:22:34;;;;;;;19.17;15.13;;;12.90;99.90;;;;;;5090732;27;20043;-77
2023/09/26 06:25:02;;;;;;;19.25;16.27;;;12.90;99.90;;;;;;5083855;27;20504;-78
2023/09/26 06:27:27;;;;;;;20.20;16.58;;;12.90;99.90;;;;;;5055875;27;20481;-77
2023/09/26 06:29:53;;;;;;;19.35;15.25;;;13.00;99.90;;;;;;5089935;27;20128;-77
2023/09/26 06:32:19;;;;;;;24.67;16.52;;;13.00;99.90;;;;;;5092876;27;20089;-78
2023/09/26 06:34:47;;;;;;;18.83;15.93;;;13.00;99.90;;;;;;5097101;27;21010;-77
2023/09/26 06:37:12;;;;;;;19.80;17.10;;;13.10;99.90;;;;;;5086441;27;20046;-76
2023/09/26 06:39:40;;;;;;;21.40;17.20;;;13.10;99.90;;;;;;5075051;27;20035;-76
2023/09/26 06:42:06;;;;;;;19.77;16.85;;;13.20;99.90;;;;;;5096943;27;20089;-76
2023/09/26 06:44:32;;;;;;;20.27;17.02;;;13.20;99.90;;;;;;5092808;27;20109;-76
2023/09/26 06:46:57;;;;;;;18.75;16.30;;;13.30;99.90;;;;;;5069103;27;20079;-76
2023/09/26 06:49:23;;;;;;;18.15;15.73;;;13.30;99.90;;;;;;5066459;27;20049;-76
2023/09/26 06:51:49;;;;;;;20.65;17.17;;;13.30;99.90;;;;;;5082336;27;20059;-76
2023/09/26 06:54:15;;;;;;;19.55;16.50;;;13.40;99.90;;;;;;5070132;27;20046;-76
2023/09/26 06:56:40;;;;;;;20.15;16.00;;;13.40;99.90;;;;;;5111222;27;20500;-77
2023/09/26 06:59:07;;;;;;;19.33;17.00;;;13.40;99.90;;;;;;5110058;27;20047;-76
2023/09/26 07:01:33;;;;;;;20.02;16.55;;;13.50;99.90;;;;;;5077751;27;20107;-77
2023/09/26 07:03:58;;;;;;;20.80;17.95;;;13.50;99.90;;;;;;5115424;27;20522;-75
2023/09/26 07:06:24;;;;;;;20.33;16.75;;;13.60;99.90;;;;;;5082453;27;20243;-75
2023/09/26 07:08:54;;;;;;;19.98;17.88;;;13.70;99.90;;;;;;5052409;27;20075;-76
2023/09/26 07:11:22;;;;;;;21.27;17.48;;;13.80;99.90;;;;;;5079374;27;20043;-75
2023/09/26 07:13:48;;;;;;;21.00;17.08;;;13.90;99.90;;;;;;5059901;27;20047;-75
2023/09/26 07:16:14;;;;;;;19.45;15.23;;;14.00;99.90;;;;;;5061454;27;20047;-75
2023/09/26 07:18:40;;;;;;;19.83;17.23;;;14.00;99.90;;;;;;5073274;27;20056;-76
2023/09/26 07:21:07;;;;;;;21.02;17.20;;;14.20;99.90;;;;;;5096585;27;20051;-75
2023/09/26 07:23:35;;;;;;;18.10;16.13;;;14.30;99.90;;;;;;5094738;27;20046;-76
2023/09/26 07:26:12;;;;;;;19.40;16.88;;;14.40;99.90;;;;;;5076692;27;22241;-76
2023/09/26 07:28:41;;;;;;;19.80;17.42;;;14.50;99.90;;;;;;5101842;27;20050;-76
2023/09/26 07:31:10;;;;;;;18.58;16.13;;;14.60;99.90;;;;;;5078237;27;20050;-75
2023/09/26 07:33:37;;;;;;;19.92;15.98;;;14.80;99.90;;;;;;5094595;27;20103;-74
2023/09/26 07:36:03;;;;;;;21.13;18.13;;;14.90;99.90;;;;;;5103407;27;20042;-75
2023/09/26 07:38:29;;;;;;;19.90;16.60;;;15.10;99.90;;;;;;5101258;27;20043;-75
2023/09/26 07:40:55;;;;;;;17.00;15.18;;;15.20;99.90;;;;;;5110673;27;20238;-75
2023/09/26 07:43:21;;;;;;;18.63;16.42;;;15.40;99.90;;;;;;5093337;27;20193;-75
2023/09/26 07:45:47;;;;;;;19.15;15.38;;;15.60;99.90;;;;;;5098595;27;20035;-75
2023/09/26 07:48:12;;;;;;;19.48;16.25;;;15.70;99.90;;;;;;5088276;27;20477;-75
2023/09/26 07:50:38;;;;;;;16.83;15.07;;;15.80;99.90;;;;;;5076612;27;20391;-75
2023/09/26 07:53:04;;;;;;;19.42;16.13;;;15.90;99.90;;;;;;5092257;27;20058;-77
2023/09/26 07:55:29;;;;;;;13.50;12.07;;;15.90;99.90;;;;;;5095023;27;20047;-77
2023/09/26 07:57:55;;;;;;;16.20;14.27;;;16.00;99.90;;;;;;5113030;27;20682;-77
2023/09/26 08:00:22;;;;;;;16.65;13.93;;;16.10;99.90;;;;;;5097548;27;20051;-78
2023/09/26 08:02:47;;;;;;;17.05;13.50;;;16.20;99.90;;;;;;5066944;27;20067;-76
2023/09/26 08:05:13;;;;;;;16.77;14.95;;;16.30;99.90;;;;;;5087175;27;20545;-76
2023/09/26 08:07:42;;;;;;;17.98;14.43;;;16.40;99.90;;;;;;5114629;27;20133;-77
2023/09/26 08:10:08;;;;;;;17.88;13.90;;;16.50;99.90;;;;;;5093220;27;20051;-76
2023/09/26 08:12:36;;;;;;;15.43;13.70;;;16.60;99.90;;;;;;5094670;27;20908;-76
2023/09/26 08:15:02;;;;;;;15.45;13.82;;;16.90;99.90;;;;;;5102625;27;20066;-77
2023/09/26 08:17:28;;;;;;;15.80;13.90;;;17.10;99.90;;;;;;5078704;27;20143;-76
2023/09/26 08:19:53;;;;;;;15.82;13.98;;;17.40;99.90;;;;;;5083134;27;20717;-76
2023/09/26 08:22:19;;;;;;;15.93;12.82;;;17.60;99.90;;;;;;5099172;27;20043;-77
2023/09/26 08:24:45;;;;;;;15.05;12.65;;;17.90;99.90;;;;;;5092556;27;20047;-77
2023/09/26 08:27:11;;;;;;;12.88;11.57;;;18.00;99.90;;;;;;5098399;27;20146;-77
2023/09/26 08:29:37;;;;;;;14.52;12.20;;;18.30;99.90;;;;;;5091808;27;20054;-76
2023/09/26 08:32:03;;;;;;;13.05;11.65;;;18.40;99.50;;;;;;5090160;27;20079;-76
2023/09/26 08:34:29;;;;;;;12.50;9.30;;;18.60;99.00;;;;;;5048724;27;20065;-77
2023/09/26 08:36:54;;;;;;;11.82;9.80;;;18.70;98.30;;;;;;5081186;27;20082;-77
2023/09/26 08:39:20;;;;;;;12.93;9.07;;;18.80;97.90;;;;;;5097699;27;20478;-76
2023/09/26 08:41:46;;;;;;;12.95;9.00;;;19.00;97.00;;;;;;5098771;27;20046;-76
2023/09/26 08:44:13;;;;;;;12.65;8.82;;;19.30;96.00;;;;;;5083542;27;20051;-78
2023/09/26 08:46:40;;;;;;;9.52;7.70;;;19.60;94.90;;;;;;5097121;27;20047;-77
2023/09/26 08:49:07;;;;;;;11.07;8.68;;;19.70;94.10;;;;;;5098807;27;20098;-78
2023/09/26 08:51:33;;;;;;;10.40;8.38;;;19.90;93.20;;;;;;5098175;27;20497;-77
2023/09/26 08:53:59;;;;;;;10.00;8.30;;;20.00;92.20;;;;;;5095230;27;20049;-77
2023/09/26 08:56:25;;;;;;;11.45;8.93;;;20.10;91.70;;;;;;5059568;27;20051;-76
2023/09/26 08:58:54;;;;;;;9.48;8.48;;;20.20;91.10;;;;;;5067469;27;20097;-77
2023/09/26 09:01:20;;;;;;;9.73;7.15;;;20.40;90.40;;;;;;5064854;27;20054;-77
2023/09/26 09:03:46;;;;;;;9.48;7.85;;;20.60;90.00;;;;;;5083379;27;20047;-77
2023/09/26 09:06:12;;;;;;;8.55;7.30;;;20.60;88.40;;;;;;5094671;27;20066;-77
2023/09/26 09:08:38;;;;;;;12.35;7.20;;;20.60;86.70;;;;;;5070087;27;20151;-77
2023/09/26 09:11:04;;;;;;;9.50;7.18;;;20.60;86.10;;;;;;5089023;27;20070;-77
2023/09/26 09:13:30;;;;;;;10.20;7.85;;;20.50;86.30;;;;;;5084541;27;20054;-77
2023/09/26 09:16:14;;;;;;;10.93;7.20;;;20.50;86.10;;;;;;5097991;27;20055;-77
2023/09/26 09:18:46;;;;;;;9.82;7.43;;;20.50;83.60;;;;;;5096154;27;20046;-77
2023/09/26 09:21:33;;;;;;;9.82;7.80;;;20.60;86.00;;;;;;5093706;27;20038;-76
2023/09/26 09:24:04;;;;;;;10.10;8.38;;;20.60;84.30;;;;;;5096999;27;20119;-76
2023/09/26 09:26:32;;;;;;;12.52;8.82;;;20.60;84.80;;;;;;5070163;27;20039;-77
2023/09/26 09:29:14;;;;;;;9.85;8.27;;;20.60;83.90;;;;;;5095201;27;20473;-78
2023/09/26 09:31:40;;;;;;;10.40;8.32;;;20.70;83.10;;;;;;5103282;27;20055;-76
2023/09/26 09:34:06;;;;;;;11.55;8.45;;;20.90;81.90;;;;;;5082916;27;20506;-76
2023/09/26 09:36:31;;;;;;;11.30;9.27;;;21.10;80.40;;;;;;5093866;27;20043;-77
2023/09/26 09:38:57;;;;;;;12.15;8.55;;;21.30;78.70;;;;;;5097215;27;20107;-76
2023/09/26 09:41:23;;;;;;;10.77;8.45;;;21.60;75.80;;;;;;5082214;27;20039;-77
2023/09/26 09:43:49;;;;;;;10.30;7.50;;;22.00;72.60;;;;;;5101991;27;20042;-77
2023/09/26 09:46:16;;;;;;;9.63;7.60;;;22.20;69.20;;;;;;5099694;27;20050;-77
2023/09/26 09:48:44;;;;;;;8.52;7.03;;;22.40;66.40;;;;;;5082268;27;20084;-77
2023/09/26 09:51:16;;;;;;;10.25;6.50;;;22.50;65.20;;;;;;5083715;27;20047;-76
2023/09/26 09:53:49;;;;;;;10.40;7.10;;;22.50;64.20;;;;;;5072530;27;20051;-77
2023/09/26 09:56:19;;;;;;;10.02;7.53;;;22.50;62.20;;;;;;5088912;27;20124;-78
2023/09/26 09:58:49;;;;;;;9.45;8.07;;;22.40;60.60;;;;;;5087588;27;20057;-78
2023/09/26 10:01:18;;;;;;;8.68;7.20;;;22.40;60.10;;;;;;5102506;27;21166;-78
2023/09/26 10:03:50;;;;;;;10.65;7.97;;;22.30;60.30;;;;;;5099886;27;20043;-78
2023/09/26 10:06:18;;;;;;;9.65;7.95;;;22.20;60.10;;;;;;5069193;27;20037;-77
2023/09/26 10:08:47;;;;;;;11.07;7.82;;;22.10;61.40;;;;;;5081417;27;21540;-78
2023/09/26 10:11:14;;;;;;;11.23;8.25;;;22.00;61.20;;;;;;5107802;27;21397;-77
2023/09/26 10:13:40;;;;;;;9.65;8.10;;;22.00;61.80;;;;;;5101879;27;20409;-77
2023/09/26 10:16:16;;;;;;;11.63;9.02;;;21.90;61.70;;;;;;5080962;27;20035;-76
2023/09/26 10:18:45;;;;;;;11.68;9.32;;;21.70;59.70;;;;;;5096345;27;20077;-77
2023/09/26 10:21:24;;;;;;;12.68;9.55;;;21.60;61.40;;;;;;5075931;27;20047;-75
2023/09/26 10:24:05;;;;;;;13.38;9.27;;;21.60;54.90;;;;;;5088020;27;20051;-77
2023/09/26 10:26:40;;;;;;;13.50;9.15;;;21.50;47.90;;;;;;5115087;27;20043;-77
2023/09/26 10:29:17;;;;;;;12.55;9.30;;;21.60;47.50;;;;;;5113775;27;20035;-77
2023/09/26 10:31:53;;;;;;;13.80;9.38;;;21.70;50.60;;;;;;5084101;27;20050;-77
2023/09/26 10:34:29;;;;;;;;;;;21.80;50.20;;;;;;5108782;27;20046;-76
2023/09/26 10:36:56;;;;;;;13.30;10.23;;;21.90;44.00;;;;;;5102309;27;19989;-77
2023/09/26 10:39:39;;;;;;;13.82;10.02;;;21.90;54.30;;;;;;5085516;27;20059;-76
2023/09/26 10:42:18;;;;;;;14.63;9.45;;;21.90;51.20;;;;;;5097104;27;20353;-77
2023/09/26 10:44:45;;;;;;;13.73;9.13;;;21.90;49.20;;;;;;5096449;27;20047;-76
2023/09/26 10:47:20;;;;;;;12.65;9.13;;;21.90;50.60;;;;;;5081139;27;20066;-76
2023/09/26 10:49:45;;;;;;;11.47;8.07;;;21.90;49.90;;;;;;5080276;27;20351;-77
2023/09/26 10:52:12;;;;;;;10.20;7.95;;;21.90;51.40;;;;;;5095683;27;20051;-77
2023/09/26 10:54:39;;;;;;;11.43;7.88;;;21.90;51.20;;;;;;5103917;27;20038;-77
2023/09/26 10:57:06;;;;;;;10.88;7.30;;;22.00;47.60;;;;;;5093113;27;20051;-76
2023/09/26 10:59:32;;;;;;;9.43;7.40;;;22.50;42.40;;;;;;5103290;27;20035;-75
2023/09/26 11:02:00;;;;;;;10.07;7.53;;;22.90;32.80;;;;;;5086544;27;20048;-77
2023/09/26 11:04:32;;;;;;;12.05;7.25;;;23.40;22.40;;;;;;5090948;27;20342;-76
2023/09/26 11:07:08;;;;;;;10.10;7.10;;;23.70;9.50;;;;;;5103712;27;20043;-76
2023/09/26 11:09:39;;;;;;;11.60;7.85;;;24.10;1.00;;;;;;5121797;27;20050;-77
2023/09/26 11:12:05;;;;;;;11.38;7.82;;;24.30;1.00;;;;;;5095975;27;20161;-77
2023/09/26 11:14:32;;;;;;;13.32;7.50;;;24.60;1.00;;;;;;5106072;27;20544;-77
2023/09/26 11:16:58;;;;;;;12.73;8.45;;;24.80;1.00;;;;;;5086050;27;20043;-78
2023/09/26 11:19:27;;;;;;;12.45;7.93;;;24.70;1.00;;;;;;5107629;27;20104;-77
2023/09/26 11:21:57;;;;;;;11.05;7.35;;;24.80;1.00;;;;;;5107840;27;20051;-77
2023/09/26 11:24:27;;;;;;;13.77;7.88;;;25.00;1.00;;;;;;5109134;27;20851;-77
2023/09/26 11:27:08;;;;;;;13.63;8.52;;;25.20;1.00;;;;;;5089498;27;20123;-77
2023/09/26 11:29:34;;;;;;;13.20;8.38;;;25.10;1.00;;;;;;5105181;27;20039;-77
2023/09/26 11:32:03;;;;;;;13.35;8.02;;;25.60;1.00;;;;;;5088017;27;20459;-77
2023/09/26 11:34:29;;;;;;;14.25;9.32;;;25.80;1.00;;;;;;5084708;27;20054;-77
2023/09/26 11:36:55;;;;;;;11.02;7.75;;;25.80;1.00;;;;;;5100509;27;20100;-77
2023/09/26 11:39:24;;;;;;;9.73;6.53;;;25.80;1.00;;;;;;5100507;27;20474;-78
2023/09/26 11:42:07;;;;;;;10.05;7.40;;;25.70;1.00;;;;;;5098138;27;20074;-78
2023/09/26 11:44:33;;;;;;;10.50;6.50;;;25.60;99.90;;;;;;5078205;27;20057;-77
2023/09/26 11:46:59;;;;;;;8.60;6.22;;;25.40;1.00;;;;;;5082025;27;20047;-77
2023/09/26 11:49:26;;;;;;;8.75;5.53;;;25.40;1.00;;;;;;5081431;27;20042;-77
2023/09/26 11:51:55;;;;;;;11.23;5.53;;;25.50;1.00;;;;;;5112898;27;20039;-77
2023/09/26 11:54:22;;;;;;;7.15;4.50;;;25.40;1.00;;;;;;5103150;27;20075;-78
2023/09/26 11:56:49;;;;;;;5.63;4.05;;;25.30;1.00;;;;;;5076727;27;20039;-78
2023/09/26 11:59:15;;;;;;;8.40;4.82;;;25.10;1.00;;;;;;5097524;27;20054;-78
2023/09/26 12:01:42;;;;;;;7.25;4.72;;;25.10;1.00;;;;;;5086310;27;20047;-78
2023/09/26 12:04:13;;;;;;;5.85;4.18;;;25.20;1.00;;;;;;5070803;27;20051;-79
2023/09/26 12:06:40;;;;;;;6.20;4.20;;;25.50;1.00;;;;;;5100759;27;20632;-77
2023/09/26 12:09:21;;;;;;;7.85;4.93;;;25.70;1.00;;;;;;5081935;27;20047;-77
2023/09/26 12:11:56;;;;;;;6.75;3.80;;;25.90;99.90;;;;;;5099030;27;20476;-77
2023/09/26 12:14:22;;;;;;;5.43;4.00;;;25.80;1.00;;;;;;5096984;27;20042;-77
2023/09/26 12:16:51;;;;;;;7.65;4.63;;;25.70;1.00;;;;;;5076779;27;20125;-78
2023/09/26 12:19:23;;;;;;;7.68;4.90;;;25.60;1.00;;;;;;5054900;27;20039;-77
2023/09/26 12:21:49;;;;;;;7.95;4.47;;;25.50;1.00;;;;;;5094004;27;20150;-79
2023/09/26 12:24:15;;;;;;;7.05;5.00;;;25.40;1.00;;;;;;5084711;27;20453;-77
2023/09/26 12:26:41;;;;;;;6.63;4.88;;;25.30;1.00;;;;;;5103728;27;20163;-78
2023/09/26 12:29:08;;;;;;;6.85;4.70;;;25.30;1.00;;;;;;5105192;27;20086;-74
2023/09/26 12:31:35;;;;;;;9.05;5.60;;;25.30;1.00;;;;;;5086918;27;20071;-77
2023/09/26 12:34:02;;;;;;;7.60;5.20;;;25.30;1.00;;;;;;5092698;27;20511;-77
2023/09/26 12:36:29;;;;;;;7.32;5.63;;;25.50;1.00;;;;;;5087326;27;20078;-77